Terminal Aerodrome Forecast
Issued by NWS

Home | Current Version | Previous Version | Text Only | Print | Product List | Glossary On
Versions: 1 2 3 4 5 6 7 8 9 10 11 12 13
000
FTUS42 KTBW 030554
TAFPGD
TAF
KPGD 030554Z 0306/0406 VRB05KT P6SM VCSH SCT040 BKN080 BKN150
      TEMPO 0306/0310 4SM SHRA BKN030 OVC060
     FM031300 12007KT P6SM SCT030 BKN100 BKN150
     FM031800 18007KT P6SM VCTS SCT045CB SCT150
     FM040100 VRB05KT P6SM SCT050 SCT250=

USA.gov is the U.S. government's official web portal to all federal, state and local government web resources and services.